createdAt,value
2018-09-23T00:00:54.389Z,23.83
2018-09-23T00:03:58.159Z,22.90
2018-09-23T00:07:01.685Z,25.33
2018-09-23T00:10:05.281Z,21.50
2018-09-23T00:13:08.870Z,25.20
2018-09-23T00:16:12.772Z,27.07
2018-09-23T00:19:16.334Z,27.70
2018-09-23T00:22:19.947Z,28.10
2018-09-23T00:25:23.635Z,22.43
2018-09-23T00:28:27.164Z,25.27
2018-09-23T00:31:30.621Z,24.10
2018-09-23T00:34:34.127Z,28.70
2018-09-23T00:37:37.715Z,26.57
2018-09-23T00:40:41.196Z,34.83
2018-09-23T00:43:44.727Z,30.37
2018-09-23T00:46:48.360Z,31.93
2018-09-23T00:49:51.840Z,30.33
2018-09-23T00:52:55.377Z,35.20
2018-09-23T00:55:58.867Z,31.50
2018-09-23T00:59:02.466Z,31.50
2018-09-23T01:02:05.952Z,29.67
2018-09-23T01:05:09.576Z,34.63
2018-09-23T01:08:13.196Z,28.93
2018-09-23T01:11:16.746Z,35.27
2018-09-23T01:14:20.252Z,28.37
2018-09-23T01:17:23.772Z,31.40
2018-09-23T01:20:27.315Z,34.27
2018-09-23T01:23:30.937Z,32.83
2018-09-23T01:26:34.537Z,33.80
2018-09-23T01:29:37.991Z,34.73
2018-09-23T01:32:41.646Z,38.17
2018-09-23T01:35:45.371Z,37.43
2018-09-23T01:38:48.932Z,37.33
2018-09-23T01:41:52.446Z,36.93
2018-09-23T01:44:56.012Z,40.80
2018-09-23T01:47:59.541Z,39.50
2018-09-23T01:51:03.043Z,41.67
2018-09-23T01:54:06.577Z,41.90
2018-09-23T01:57:10.142Z,39.87
2018-09-23T02:00:13.726Z,45.77
2018-09-23T02:03:17.251Z,39.20
2018-09-23T02:06:20.792Z,43.43
2018-09-23T02:09:24.346Z,44.17
2018-09-23T02:12:27.870Z,45.03
2018-09-23T02:15:31.433Z,45.00
2018-09-23T02:18:34.991Z,44.60
2018-09-23T02:21:38.574Z,50.00
2018-09-23T02:24:42.322Z,43.77
2018-09-23T02:27:45.842Z,43.83
2018-09-23T02:30:49.352Z,45.57
2018-09-23T02:33:52.848Z,41.87
2018-09-23T02:36:56.407Z,44.80
2018-09-23T02:39:59.927Z,42.57
2018-09-23T02:43:03.475Z,41.67
2018-09-23T02:46:07.237Z,41.03
2018-09-23T02:49:10.811Z,48.17
2018-09-23T02:52:14.632Z,43.53
2018-09-23T02:55:18.186Z,41.67
2018-09-23T02:58:21.750Z,43.70
2018-09-23T03:01:25.247Z,36.70
2018-09-23T03:04:28.806Z,43.13
2018-09-23T03:07:32.355Z,41.43
2018-09-23T03:10:35.929Z,38.33
2018-09-23T03:13:39.457Z,37.50
2018-09-23T03:16:42.922Z,39.67
2018-09-23T03:19:46.549Z,38.07
2018-09-23T03:22:50.039Z,41.33
2018-09-23T03:25:53.591Z,43.67
2018-09-23T03:28:57.121Z,35.87
2018-09-23T03:32:00.588Z,38.00
2018-09-23T03:35:04.117Z,35.23
2018-09-23T03:38:08.007Z,39.90
2018-09-23T03:41:11.516Z,38.33
2018-09-23T03:44:15.033Z,37.43
2018-09-23T03:47:18.679Z,42.00
2018-09-23T03:50:22.226Z,33.53
2018-09-23T03:53:25.789Z,37.30
2018-09-23T03:56:29.389Z,39.37
2018-09-23T03:59:32.965Z,34.97
2018-09-23T04:02:36.522Z,32.03
2018-09-23T04:05:40.052Z,33.63
2018-09-23T04:08:43.567Z,34.33
2018-09-23T04:11:47.043Z,34.87
2018-09-23T04:14:50.582Z,35.20
2018-09-23T04:17:54.122Z,31.57
2018-09-23T04:20:57.794Z,31.67
2018-09-23T04:24:01.319Z,33.87
2018-09-23T04:27:04.909Z,31.70
2018-09-23T04:30:08.422Z,31.37
2018-09-23T04:33:11.998Z,31.20
2018-09-23T04:36:15.644Z,24.13
2018-09-23T04:39:19.163Z,28.20
2018-09-23T04:42:22.719Z,29.90
2018-09-23T04:45:26.319Z,22.80
2018-09-23T04:48:29.958Z,30.10
2018-09-23T04:51:33.563Z,26.00
2018-09-23T04:54:37.162Z,27.77
2018-09-23T04:57:40.828Z,27.73
2018-09-23T05:00:44.419Z,31.83
2018-09-23T05:03:47.938Z,29.23
2018-09-23T05:06:51.468Z,28.13
2018-09-23T05:09:55.038Z,27.97
2018-09-23T05:12:58.843Z,28.00
2018-09-23T05:16:02.424Z,25.23
2018-09-23T05:19:06.035Z,29.80
2018-09-23T05:22:09.668Z,27.30
2018-09-23T05:25:13.180Z,29.53
2018-09-23T05:28:16.763Z,25.57
2018-09-23T05:31:20.279Z,30.77
2018-09-23T05:34:23.760Z,28.43
2018-09-23T05:37:27.359Z,30.97
2018-09-23T05:40:30.907Z,31.33
2018-09-23T05:43:34.637Z,29.10
2018-09-23T05:46:38.300Z,30.93
2018-09-23T05:49:41.840Z,26.20
2018-09-23T05:52:45.456Z,29.07
2018-09-23T05:55:49.090Z,30.53
2018-09-23T05:58:52.631Z,33.70
2018-09-23T06:01:56.283Z,30.43
2018-09-23T06:04:59.910Z,28.10
2018-09-23T06:08:03.418Z,26.40
2018-09-23T06:11:06.953Z,29.60
2018-09-23T06:14:10.515Z,26.47
2018-09-23T06:17:14.164Z,26.10
2018-09-23T06:20:17.674Z,27.60
2018-09-23T06:23:21.274Z,22.43
2018-09-23T06:26:24.819Z,26.50
2018-09-23T06:29:28.366Z,24.37
2018-09-23T06:32:32.050Z,27.83
2018-09-23T06:35:35.639Z,21.83
2018-09-23T06:38:39.246Z,27.23
2018-09-23T06:41:42.976Z,24.90
2018-09-23T06:44:46.478Z,22.47
2018-09-23T06:47:50.016Z,20.73
2018-09-23T06:50:53.593Z,24.80
2018-09-23T06:53:57.155Z,24.27
2018-09-23T06:57:00.719Z,19.80
2018-09-23T07:00:04.350Z,18.40
2018-09-23T07:03:07.922Z,18.20
2018-09-23T07:06:11.491Z,20.70
2018-09-23T07:09:15.034Z,18.47
2018-09-23T07:12:18.530Z,22.83
2018-09-23T07:15:22.050Z,18.13
2018-09-23T07:18:25.645Z,18.43
2018-09-23T07:21:29.280Z,16.10
2018-09-23T07:24:32.861Z,16.80
2018-09-23T07:27:36.371Z,17.13
2018-09-23T07:30:39.999Z,14.77
2018-09-23T07:33:43.514Z,14.83
2018-09-23T07:36:47.148Z,14.00
2018-09-23T07:39:50.637Z,16.70
2018-09-23T07:42:54.361Z,16.70
2018-09-23T07:45:57.951Z,20.40
2018-09-23T07:49:01.545Z,18.30
2018-09-23T07:52:05.224Z,16.10
2018-09-23T07:55:08.826Z,15.43
2018-09-23T07:58:12.347Z,16.50
2018-09-23T08:01:15.996Z,16.63
2018-09-23T08:04:19.588Z,15.17
2018-09-23T08:07:23.125Z,15.00
2018-09-23T08:10:26.747Z,12.40
2018-09-23T08:13:30.679Z,16.20
2018-09-23T08:16:34.180Z,19.50
2018-09-23T08:19:37.929Z,17.70
2018-09-23T08:22:41.365Z,16.23
2018-09-23T08:25:51.142Z,14.97
2018-09-23T08:28:54.677Z,15.00
2018-09-23T08:31:58.276Z,14.53
2018-09-23T08:35:01.842Z,14.40
2018-09-23T08:38:05.464Z,17.40
2018-09-23T08:41:09.012Z,17.97
2018-09-23T08:44:12.527Z,16.13
2018-09-23T08:47:16.075Z,15.20
2018-09-23T08:50:19.747Z,19.10
2018-09-23T08:53:23.382Z,14.87
2018-09-23T08:56:26.958Z,17.27
2018-09-23T08:59:30.537Z,15.67
2018-09-23T09:02:34.201Z,14.60
2018-09-23T09:05:37.823Z,17.63
2018-09-23T09:08:41.416Z,21.83
2018-09-23T09:11:45.104Z,18.00
2018-09-23T09:14:48.680Z,14.87
2018-09-23T09:17:52.267Z,16.67
2018-09-23T09:20:55.850Z,17.77
2018-09-23T09:23:59.522Z,15.57
2018-09-23T09:27:03.122Z,19.90
2018-09-23T09:30:07.117Z,21.23
2018-09-23T09:33:10.758Z,18.43
2018-09-23T09:36:14.411Z,17.37
2018-09-23T09:39:18.004Z,18.73
2018-09-23T09:42:21.617Z,17.80
2018-09-23T09:45:25.418Z,18.70
2018-09-23T09:48:29.082Z,20.70
2018-09-23T09:51:33.608Z,20.80
2018-09-23T09:54:37.227Z,20.20
2018-09-23T09:57:40.976Z,16.30
2018-09-23T10:00:50.247Z,19.73
2018-09-23T10:03:53.985Z,17.50
2018-09-23T10:06:57.558Z,21.93
2018-09-23T10:10:01.168Z,20.97
2018-09-23T10:13:04.763Z,24.27
2018-09-23T10:16:08.397Z,18.90
2018-09-23T10:19:12.043Z,18.03
2018-09-23T10:22:15.703Z,16.43
2018-09-23T10:25:19.294Z,18.97
2018-09-23T10:28:22.931Z,16.50
2018-09-23T10:31:26.683Z,22.60
2018-09-23T10:34:30.110Z,16.30
2018-09-23T10:37:33.722Z,25.03
2018-09-23T10:40:37.379Z,17.00
2018-09-23T10:43:41.044Z,20.10
2018-09-23T10:46:44.680Z,18.13
2018-09-23T10:49:48.279Z,17.23
2018-09-23T10:52:51.894Z,16.00
2018-09-23T10:55:55.754Z,15.53
2018-09-23T10:58:59.596Z,16.47
2018-09-23T11:02:03.187Z,21.93
2018-09-23T11:05:07.081Z,21.57
2018-09-23T11:08:10.691Z,20.40
2018-09-23T11:11:14.518Z,22.80
2018-09-23T11:14:18.686Z,26.77
2018-09-23T11:17:22.313Z,23.70
2018-09-23T11:20:26.017Z,24.67
2018-09-23T11:23:29.887Z,20.10
2018-09-23T11:26:33.782Z,21.90
2018-09-23T11:29:37.350Z,23.77
2018-09-23T11:32:40.904Z,22.80
2018-09-23T11:35:44.479Z,31.07
2018-09-23T11:38:48.174Z,25.53
2018-09-23T11:41:51.878Z,22.63
2018-09-23T11:44:55.415Z,27.97
2018-09-23T11:47:59.051Z,31.23
2018-09-23T11:51:02.662Z,30.73
2018-09-23T11:54:06.415Z,29.83
2018-09-23T11:57:09.927Z,36.07
2018-09-23T12:00:13.692Z,28.07
2018-09-23T12:03:17.302Z,33.33
2018-09-23T12:06:20.960Z,29.10
2018-09-23T12:09:24.742Z,32.57
2018-09-23T12:12:28.345Z,34.07
2018-09-23T12:15:32.062Z,26.83
2018-09-23T12:18:35.589Z,28.50
2018-09-23T12:21:39.204Z,30.80
2018-09-23T12:24:42.882Z,28.90
2018-09-23T12:27:46.715Z,27.23
2018-09-23T12:30:50.560Z,29.90
2018-09-23T12:33:54.259Z,34.60
2018-09-23T12:36:57.985Z,31.30
2018-09-23T12:40:01.705Z,32.33
2018-09-23T12:43:05.385Z,24.13
2018-09-23T12:46:09.049Z,27.33
2018-09-23T12:49:12.710Z,27.20
2018-09-23T12:52:16.390Z,27.13
2018-09-23T12:55:20.096Z,31.97
2018-09-23T12:58:23.739Z,35.70
2018-09-23T13:01:27.414Z,42.40
2018-09-23T13:04:31.210Z,42.03
2018-09-23T13:07:34.939Z,39.90
2018-09-23T13:10:38.948Z,49.20
2018-09-23T13:13:42.524Z,42.37
2018-09-23T13:16:46.310Z,36.30
2018-09-23T13:19:50.096Z,34.53
2018-09-23T13:22:53.719Z,32.60
2018-09-23T13:25:57.401Z,37.00
2018-09-23T13:29:01.134Z,33.70
2018-09-23T13:32:04.768Z,29.50
2018-09-23T13:35:08.462Z,27.53
2018-09-23T13:38:12.189Z,25.83
2018-09-23T13:41:15.875Z,25.57
2018-09-23T13:44:19.499Z,26.53
2018-09-23T13:47:23.176Z,23.60
2018-09-23T13:50:26.769Z,13.50
2018-09-23T13:53:30.325Z,16.20
2018-09-23T13:56:34.054Z,7.37
2018-09-23T13:59:37.755Z,10.40
2018-09-23T14:02:41.573Z,13.57
2018-09-23T14:05:45.434Z,8.47
2018-09-23T14:08:48.979Z,13.63
2018-09-23T14:11:52.655Z,14.50
2018-09-23T14:14:56.326Z,24.07
2018-09-23T14:17:59.997Z,27.00
2018-09-23T14:21:03.713Z,29.50
2018-09-23T14:24:07.415Z,30.23
2018-09-23T14:27:11.933Z,29.60
2018-09-23T14:30:15.658Z,28.57
2018-09-23T14:33:19.465Z,28.60
2018-09-23T14:36:23.195Z,30.03
2018-09-23T14:39:27.660Z,27.50
2018-09-23T14:42:31.375Z,23.40
2018-09-23T14:45:34.980Z,26.03
2018-09-23T14:48:39.202Z,22.43
2018-09-23T14:51:43.049Z,21.83
2018-09-23T14:54:46.977Z,22.37
2018-09-23T14:57:50.421Z,25.47
2018-09-23T15:00:54.249Z,24.90
2018-09-23T15:03:58.023Z,13.80
2018-09-23T15:07:01.681Z,15.03
2018-09-23T15:10:05.573Z,13.23
2018-09-23T15:13:09.276Z,14.80
2018-09-23T15:16:13.043Z,10.90
2018-09-23T15:19:16.678Z,9.20
2018-09-23T15:22:20.312Z,7.57
2018-09-23T15:25:24.000Z,15.83
2018-09-23T15:28:27.667Z,14.50
2018-09-23T15:31:31.265Z,14.57
2018-09-23T15:34:34.942Z,14.27
2018-09-23T15:37:38.526Z,19.33
2018-09-23T15:40:42.247Z,13.93
2018-09-23T15:43:46.277Z,13.30
2018-09-23T15:46:49.961Z,12.17
2018-09-23T15:49:53.645Z,11.60
2018-09-23T15:52:57.381Z,13.67
2018-09-23T15:56:00.972Z,13.30
2018-09-23T15:59:04.712Z,13.07
2018-09-23T16:02:08.301Z,20.47
2018-09-23T16:05:11.957Z,13.53
2018-09-23T16:08:15.527Z,10.30
2018-09-23T16:11:19.190Z,12.47
2018-09-23T16:14:22.904Z,14.43
2018-09-23T16:17:26.697Z,15.87
2018-09-23T16:20:30.311Z,18.70
2018-09-23T16:23:34.054Z,18.43
2018-09-23T16:26:37.753Z,16.83
2018-09-23T16:29:41.386Z,17.03
2018-09-23T16:32:45.114Z,15.20
2018-09-23T16:35:48.730Z,20.43
2018-09-23T16:38:52.517Z,16.27
2018-09-23T16:41:56.155Z,23.53
2018-09-23T16:44:59.773Z,21.47
2018-09-23T16:48:03.458Z,23.23
2018-09-23T16:51:07.144Z,22.60
2018-09-23T16:54:10.966Z,16.47
2018-09-23T16:57:14.800Z,19.03
2018-09-23T17:00:18.435Z,20.53
2018-09-23T17:03:22.126Z,20.80
2018-09-23T17:06:25.851Z,17.10
2018-09-23T17:09:29.447Z,23.07
2018-09-23T17:12:33.105Z,18.50
2018-09-23T17:15:36.830Z,20.50
2018-09-23T17:18:40.483Z,21.80
2018-09-23T17:21:44.290Z,19.70
2018-09-23T17:24:47.907Z,22.50
2018-09-23T17:27:53.442Z,16.63
2018-09-23T17:30:57.208Z,15.87
2018-09-23T17:34:00.824Z,17.23
2018-09-23T17:37:04.477Z,24.23
2018-09-23T17:40:08.213Z,24.87
2018-09-23T17:43:11.914Z,24.00
2018-09-23T17:46:15.570Z,34.80
2018-09-23T17:49:19.167Z,30.80
2018-09-23T17:52:23.057Z,20.97
2018-09-23T17:55:26.730Z,23.70
2018-09-23T17:58:30.566Z,23.60
2018-09-23T18:01:34.193Z,18.00
2018-09-23T18:04:37.902Z,18.37
2018-09-23T18:07:41.597Z,20.80
2018-09-23T18:10:45.303Z,21.67
2018-09-23T18:13:49.103Z,17.33
2018-09-23T18:16:52.774Z,13.77
2018-09-23T18:19:56.374Z,23.97
2018-09-23T18:23:00.007Z,14.30
2018-09-23T18:26:03.703Z,13.77
2018-09-23T18:29:07.407Z,13.90
2018-09-23T18:32:11.085Z,13.93
2018-09-23T18:35:15.382Z,11.63
2018-09-23T18:38:19.019Z,13.63
2018-09-23T18:41:22.696Z,9.80
2018-09-23T18:44:26.467Z,9.43
2018-09-23T18:47:30.184Z,10.43
2018-09-23T18:50:33.777Z,10.50
2018-09-23T18:53:37.439Z,7.20
2018-09-23T18:56:40.997Z,6.30
2018-09-23T18:59:44.760Z,7.90
2018-09-23T19:02:48.342Z,8.90
2018-09-23T19:05:51.988Z,10.07
2018-09-23T19:08:55.624Z,7.23
2018-09-23T19:11:59.362Z,14.77
2018-09-23T19:15:02.920Z,6.43
2018-09-23T19:18:06.748Z,6.03
2018-09-23T19:21:10.313Z,9.00
2018-09-23T19:24:13.918Z,10.70
2018-09-23T19:27:17.594Z,8.90
2018-09-23T19:30:21.449Z,10.40
2018-09-23T19:33:25.106Z,11.60
2018-09-23T19:36:28.743Z,8.53
2018-09-23T19:39:32.430Z,10.10
2018-09-23T19:42:36.084Z,12.33
2018-09-23T19:45:39.916Z,8.57
2018-09-23T19:48:43.453Z,10.40
2018-09-23T19:51:47.066Z,11.07
2018-09-23T19:54:50.767Z,9.43
2018-09-23T19:57:54.375Z,13.20
2018-09-23T20:00:58.079Z,9.50
2018-09-23T20:04:01.709Z,11.03
2018-09-23T20:07:05.557Z,9.60
2018-09-23T20:10:08.956Z,11.73
2018-09-23T20:13:12.694Z,10.40
2018-09-23T20:16:16.413Z,8.30
2018-09-23T20:19:20.176Z,7.17
2018-09-23T20:22:23.807Z,11.00
2018-09-23T20:25:27.580Z,9.27
2018-09-23T20:28:31.270Z,8.40
2018-09-23T20:31:34.859Z,18.57
2018-09-23T20:34:38.611Z,11.27
2018-09-23T20:37:42.298Z,12.00
2018-09-23T20:40:46.113Z,9.13
2018-09-23T20:43:49.830Z,10.33
2018-09-23T20:46:53.829Z,12.83
2018-09-23T20:49:57.629Z,7.60
2018-09-23T20:53:01.688Z,8.03
2018-09-23T20:56:05.387Z,9.30
2018-09-23T20:59:09.343Z,14.33
2018-09-23T21:02:13.001Z,20.10
2018-09-23T21:05:16.599Z,10.80
2018-09-23T21:08:20.359Z,10.10
2018-09-23T21:11:24.130Z,10.50
2018-09-23T21:14:28.564Z,8.07
2018-09-23T21:17:32.295Z,6.57
2018-09-23T21:20:35.980Z,6.77
2018-09-23T21:23:39.619Z,10.57
2018-09-23T21:26:43.161Z,8.60
2018-09-23T21:29:46.834Z,5.93
2018-09-23T21:32:50.521Z,8.00
2018-09-23T21:35:54.190Z,12.73
2018-09-23T21:38:57.864Z,8.73
2018-09-23T21:42:01.450Z,13.03
2018-09-23T21:45:05.288Z,12.87
2018-09-23T21:48:09.058Z,10.90
2018-09-23T21:51:12.625Z,11.57
2018-09-23T21:54:16.248Z,7.47
2018-09-23T21:57:19.813Z,9.43
2018-09-23T22:00:27.158Z,13.23
2018-09-23T22:03:30.696Z,7.47
2018-09-23T22:06:34.331Z,11.73
2018-09-23T22:09:37.955Z,8.90
2018-09-23T22:12:41.557Z,11.93
2018-09-23T22:15:45.209Z,10.40
2018-09-23T22:18:48.844Z,5.43
2018-09-23T22:21:52.483Z,6.70
2018-09-23T22:24:55.938Z,9.50
2018-09-23T22:27:59.619Z,10.60
2018-09-23T22:31:03.323Z,11.63
2018-09-23T22:34:07.111Z,14.57
2018-09-23T22:37:10.824Z,10.20
2018-09-23T22:40:14.467Z,9.47
2018-09-23T22:43:18.125Z,7.77
2018-09-23T22:46:21.630Z,5.40
2018-09-23T22:49:25.208Z,8.47
2018-09-23T22:52:29.030Z,8.63
2018-09-23T22:55:32.576Z,12.03
2018-09-23T22:58:36.245Z,10.67
2018-09-23T23:01:39.926Z,8.70
2018-09-23T23:04:43.519Z,8.43
2018-09-23T23:07:47.235Z,8.57
2018-09-23T23:10:50.756Z,9.33
2018-09-23T23:13:54.465Z,12.37
2018-09-23T23:16:58.017Z,11.03
2018-09-23T23:20:01.587Z,10.50
2018-09-23T23:23:05.202Z,7.97
2018-09-23T23:26:08.877Z,10.53
2018-09-23T23:29:12.445Z,10.17
2018-09-23T23:32:15.996Z,7.00
2018-09-23T23:35:19.534Z,7.27
2018-09-23T23:38:23.150Z,11.13
2018-09-23T23:41:26.662Z,7.37
2018-09-23T23:44:30.175Z,9.37
2018-09-23T23:47:33.726Z,12.23
2018-09-23T23:50:37.387Z,6.93
2018-09-23T23:53:41.093Z,8.73
2018-09-23T23:56:44.644Z,10.33
2018-09-23T23:59:48.152Z,18.63
